Time;durP1;ratioP1;P1;durP2;ratioP2;P2;SDS_P1;SDS_P2;PMS_P1;PMS_P2;Temp;Humidity;BMP_temperature;BMP_pressure;BME280_temperature;BME280_humidity;BME280_pressure;Samples;Min_cycle;Max_cycle;Signal;HPM_P1;HPM_P2
2022/04/04 00:00:45;;;;;;;;;;;-1.50;99.90;;;;;;5022882;28;19997;-70
2022/04/04 00:03:11;;;;;;;;;;;-1.50;99.90;;;;;;5023303;28;20124;-69
2022/04/04 00:05:39;;;;;;;;;;;-1.50;99.90;;;;;;5022707;28;19921;-69
2022/04/04 00:08:07;;;;;;;;;;;-1.50;99.90;;;;;;5023076;28;19921;-70
2022/04/04 00:10:34;;;;;;;;;;;-1.40;99.90;;;;;;5022961;28;19984;-69
2022/04/04 00:13:00;;;;;;;;;;;-1.50;99.90;;;;;;5020941;28;19921;-70
2022/04/04 00:15:27;;;;;;;;;;;-1.50;99.90;;;;;;5022195;28;20201;-69
2022/04/04 00:17:54;;;;;;;;;;;-1.50;99.90;;;;;;5023139;28;20213;-70
2022/04/04 00:20:22;;;;;;;;;;;-1.50;99.90;;;;;;5023072;28;19964;-70
2022/04/04 00:22:48;;;;;;;;;;;-1.60;99.90;;;;;;5021485;28;19921;-69
2022/04/04 00:25:16;;;;;;;;;;;-1.70;99.90;;;;;;5022291;28;19922;-69
2022/04/04 00:27:44;;;;;;;;;;;-1.70;99.90;;;;;;5019822;28;19929;-69
2022/04/04 00:30:10;;;;;;;;;;;-1.70;99.90;;;;;;5018312;28;19957;-70
2022/04/04 00:32:37;;;;;;;;;;;-1.70;99.90;;;;;;5026404;28;19930;-69
2022/04/04 00:35:04;;;;;;;;;;;-1.70;99.90;;;;;;5026302;28;19926;-70
2022/04/04 00:37:32;;;;;;;;;;;-1.70;99.90;;;;;;5020910;28;19927;-70
2022/04/04 00:39:58;;;;;;;;;;;-1.70;99.90;;;;;;5026194;28;20246;-70
2022/04/04 00:42:26;;;;;;;;;;;-1.70;99.90;;;;;;5026394;28;20219;-69
2022/04/04 00:44:53;;;;;;;;;;;-1.80;99.90;;;;;;5024988;28;19928;-69
2022/04/04 00:47:20;;;;;;;;;;;-1.80;99.90;;;;;;5022522;28;19928;-69
2022/04/04 00:49:48;;;;;;;;;;;-1.80;99.90;;;;;;5025989;28;19928;-69
2022/04/04 00:52:14;;;;;;;;;;;-1.80;99.90;;;;;;5025975;28;20121;-70
2022/04/04 00:54:41;;;;;;;;;;;-1.90;99.90;;;;;;5025879;28;20093;-69
2022/04/04 00:57:08;;;;;;;;;;;-1.90;99.90;;;;;;5025545;28;19941;-69
2022/04/04 00:59:36;;;;;;;;;;;-1.90;99.90;;;;;;5042174;22;19972;-72
2022/04/04 01:02:03;;;;;;;;;;;-1.90;99.90;;;;;;5026127;28;19929;-73
2022/04/04 01:04:29;;;;;;;;;;;-1.90;99.90;;;;;;5055706;28;20374;-73
2022/04/04 01:06:56;;;;;;;;;;;-1.90;99.90;;;;;;5044977;28;20148;-73
2022/04/04 01:09:22;;;;;;;;;;;-1.90;99.90;;;;;;5045323;28;19921;-73
2022/04/04 01:12:01;;;;;;;;;;;-1.90;99.90;;;;;;5043286;28;19929;-72
2022/04/04 01:14:28;;;;;;;;;;;-2.00;99.90;;;;;;5045448;28;19928;-73
2022/04/04 01:16:56;;;;;;;;;;;-2.00;99.90;;;;;;5044940;28;19921;-73
2022/04/04 01:19:23;;;;;;;;;;;-2.00;99.90;;;;;;5045347;28;20147;-73
2022/04/04 01:21:49;;;;;;;;;;;-2.00;99.90;;;;;;5045492;28;19927;-73
2022/04/04 01:24:18;;;;;;;;;;;-2.00;99.90;;;;;;5062841;28;19941;-73
2022/04/04 01:26:46;;;;;;;;;;;-2.10;99.90;;;;;;5062862;28;19927;-73
2022/04/04 01:29:12;;;;;;;;;;;-2.10;99.90;;;;;;5025247;28;19921;-72
2022/04/04 01:31:39;;;;;;;;;;;-2.10;99.90;;;;;;5025369;28;19921;-72
2022/04/04 01:34:06;;;;;;;;;;;-2.10;99.90;;;;;;5025151;28;19948;-72
2022/04/04 01:36:32;;;;;;;;;;;-2.10;99.90;;;;;;5022698;28;19937;-72
2022/04/04 01:39:00;;;;;;;;;;;-2.10;99.90;;;;;;5022846;28;19925;-72
2022/04/04 01:41:28;;;;;;;;;;;-2.10;99.90;;;;;;5026312;28;19949;-72
2022/04/04 01:43:55;;;;;;;;;;;-2.10;99.90;;;;;;5025356;28;19929;-73
2022/04/04 01:46:27;;;;;;;;;;;-2.10;99.90;;;;;;5027513;28;20232;-73
2022/04/04 01:48:55;;;;;;;;;;;-2.20;99.90;;;;;;5054170;28;19943;-72
2022/04/04 01:51:29;;;;;;;;;;;-2.20;99.90;;;;;;5053240;28;19921;-72
2022/04/04 01:53:55;;;;;;;;;;;-2.20;99.90;;;;;;5045038;28;19921;-72
2022/04/04 01:56:22;;;;;;;;;;;-2.20;99.90;;;;;;5050136;28;19921;-72
2022/04/04 01:58:51;;;;;;;;;;;-2.20;99.90;;;;;;5046923;28;19921;-72
2022/04/04 02:01:18;;;;;;;;;;;-2.20;99.90;;;;;;5044704;28;19921;-72
2022/04/04 02:03:46;;;;;;;;;;;-2.20;99.90;;;;;;5044796;28;19927;-73
2022/04/04 02:06:14;;;;;;;;;;;-2.20;99.90;;;;;;5052830;28;20200;-72
2022/04/04 02:08:41;;;;;;;;;;;-2.20;99.90;;;;;;5051690;28;19921;-72
2022/04/04 02:11:08;;;;;;;;;;;-2.30;99.90;;;;;;5039296;28;19922;-72
2022/04/04 02:13:34;;;;;;;;;;;-2.20;99.90;;;;;;5024835;28;20124;-72
2022/04/04 02:16:02;;;;;;;;;;;-2.20;99.90;;;;;;5024542;28;20210;-73
2022/04/04 02:18:29;;;;;;;;;;;-2.20;99.90;;;;;;5024519;28;20212;-72
2022/04/04 02:20:56;;;;;;;;;;;-2.30;99.90;;;;;;5041019;28;19921;-72
2022/04/04 02:23:23;;;;;;;;;;;-2.30;99.90;;;;;;5028604;28;19943;-72
2022/04/04 02:25:50;;;;;;;;;;;-2.30;99.90;;;;;;5023801;28;19929;-72
2022/04/04 02:28:17;;;;;;;;;;;-2.30;99.90;;;;;;5024215;28;19921;-72
2022/04/04 02:30:44;;;;;;;;;;;-2.30;99.90;;;;;;5024723;28;19921;-73
2022/04/04 02:33:13;;;;;;;;;;;-2.30;99.90;;;;;;5024262;28;19944;-72
2022/04/04 02:35:39;;;;;;;;;;;-2.40;99.90;;;;;;5024000;28;20130;-72
2022/04/04 02:38:07;;;;;;;;;;;-2.30;99.90;;;;;;5021645;28;19928;-72
2022/04/04 02:40:34;;;;;;;;;;;-2.40;99.90;;;;;;5024143;28;19985;-72
2022/04/04 02:43:01;;;;;;;;;;;-2.30;99.90;;;;;;5023870;28;19921;-72
2022/04/04 02:45:29;;;;;;;;;;;-2.40;99.90;;;;;;5022956;28;19922;-72
2022/04/04 02:47:55;;;;;;;;;;;-2.40;99.90;;;;;;5027985;28;19921;-73
2022/04/04 02:50:23;;;;;;;;;;;-2.40;99.90;;;;;;5055797;28;20293;-72
2022/04/04 02:52:50;;;;;;;;;;;-2.40;99.90;;;;;;5042645;28;19921;-73
2022/04/04 02:58:01;;;;;;;;;;;-2.30;99.90;;;;;;5055087;28;19962;-72
2022/04/04 03:00:28;;;;;;;;;;;-2.40;99.90;;;;;;5055617;28;19928;-72
2022/04/04 03:02:55;;;;;;;;;;;-2.40;99.90;;;;;;5057159;28;19927;-72
2022/04/04 03:05:23;;;;;;;;;;;-2.40;99.90;;;;;;5040060;28;19929;-72
2022/04/04 03:07:50;;;;;;;;;;;-2.40;99.90;;;;;;5043492;28;20227;-72
2022/04/04 03:10:17;;;;;;;;;;;-2.40;99.90;;;;;;5043462;28;19935;-72
2022/04/04 03:12:44;;;;;;;;;;;-2.40;99.90;;;;;;5040973;28;19988;-72
2022/04/04 03:15:12;;;;;;;;;;;-2.40;99.90;;;;;;5043522;28;19928;-72
2022/04/04 03:17:39;;;;;;;;;;;-2.40;99.90;;;;;;5054727;28;19921;-73
2022/04/04 03:20:09;;;;;;;;;;;-2.40;99.90;;;;;;5044654;28;19968;-72
2022/04/04 03:22:38;;;;;;;;;;;-2.40;99.90;;;;;;5024965;28;19922;-72
2022/04/04 03:25:05;;;;;;;;;;;-2.40;99.90;;;;;;5023190;28;20235;-72
2022/04/04 03:27:32;;;;;;;;;;;-2.40;99.90;;;;;;5022971;28;19922;-72
2022/04/04 03:29:59;;;;;;;;;;;-2.40;99.90;;;;;;5023304;28;19925;-72
2022/04/04 03:32:25;;;;;;;;;;;-2.40;99.90;;;;;;5061170;28;19927;-71
2022/04/04 03:34:52;;;;;;;;;;;-2.40;99.90;;;;;;5032111;28;19921;-72
2022/04/04 03:37:19;;;;;;;;;;;-2.40;99.90;;;;;;5022697;28;19930;-72
2022/04/04 03:39:47;;;;;;;;;;;-2.40;99.90;;;;;;5023434;28;19921;-72
2022/04/04 03:42:13;;;;;;;;;;;-2.40;99.90;;;;;;5023292;28;20205;-72
2022/04/04 03:44:40;;;;;;;;;;;-2.40;99.90;;;;;;5023641;28;20105;-72
2022/04/04 03:47:07;;;;;;;;;;;-2.40;99.90;;;;;;5020517;28;20212;-72
2022/04/04 03:49:34;;;;;;;;;;;-2.50;99.90;;;;;;5024623;28;20193;-72
2022/04/04 03:52:00;;;;;;;;;;;-2.40;99.90;;;;;;5023270;28;20267;-72
2022/04/04 03:54:27;;;;;;;;;;;-2.40;99.90;;;;;;5023098;28;19926;-72
2022/04/04 03:56:55;;;;;;;;;;;-2.40;99.90;;;;;;5022744;28;19921;-72
2022/04/04 03:59:22;;;;;;;;;;;-2.40;99.90;;;;;;5023102;28;19929;-72
2022/04/04 04:01:48;;;;;;;;;;;-2.40;99.90;;;;;;5036519;28;19921;-72
2022/04/04 04:04:15;;;;;;;;;;;-2.50;99.90;;;;;;5025486;28;19929;-72
2022/04/04 04:06:42;;;;;;;;;;;-2.50;99.90;;;;;;5026538;28;19921;-72
2022/04/04 04:09:08;;;;;;;;;;;-2.50;99.90;;;;;;5026967;28;19921;-72
2022/04/04 04:11:35;;;;;;;;;;;-2.50;99.90;;;;;;5024831;28;19929;-72
2022/04/04 04:14:03;;;;;;;;;;;-2.50;99.90;;;;;;5026934;28;19930;-72
2022/04/04 04:16:29;;;;;;;;;;;-2.50;99.90;;;;;;5026283;28;19929;-72
2022/04/04 04:18:56;;;;;;;;;;;-2.50;99.90;;;;;;5035730;28;19921;-72
2022/04/04 04:21:23;;;;;;;;;;;-2.50;99.90;;;;;;5046767;28;19921;-72
2022/04/04 04:23:51;;;;;;;;;;;-2.50;99.90;;;;;;5043653;28;20239;-72
2022/04/04 04:26:17;;;;;;;;;;;-2.60;99.90;;;;;;5053157;28;19921;-72
2022/04/04 04:28:45;;;;;;;;;;;-2.60;99.90;;;;;;5064859;28;19924;-72
2022/04/04 04:31:14;;;;;;;;;;;-2.60;99.90;;;;;;5062814;28;19921;-72
2022/04/04 04:33:40;;;;;;;;;;;-2.60;99.90;;;;;;5050575;28;19921;-72
2022/04/04 04:36:07;;;;;;;;;;;-2.60;99.90;;;;;;5045532;28;19952;-72
2022/04/04 04:38:34;;;;;;;;;;;-2.60;99.90;;;;;;5026992;28;20213;-72
2022/04/04 04:41:01;;;;;;;;;;;-2.60;99.90;;;;;;5032577;28;19928;-72
2022/04/04 04:43:28;;;;;;;;;;;-2.60;99.90;;;;;;5048679;28;20242;-72
2022/04/04 04:45:57;;;;;;;;;;;-2.60;99.90;;;;;;5022507;28;19956;-72
2022/04/04 04:48:25;;;;;;;;;;;-2.60;99.90;;;;;;5030094;28;20201;-72
2022/04/04 04:54:07;;;;;;;;;;;-2.50;99.90;;;;;;4974188;28;20129;-74
2022/04/04 04:56:33;;;;;;;;;;;-2.50;99.90;;;;;;4984872;28;19946;-72
2022/04/04 04:59:00;;;;;;;;;;;-2.50;99.90;;;;;;5044409;28;20143;-72
2022/04/04 05:01:27;;;;;;;;;;;-2.50;99.90;;;;;;5043921;28;19928;-72
2022/04/04 05:03:57;;;;;;;;;;;-2.50;99.90;;;;;;5046703;28;19921;-72
2022/04/04 05:06:23;;;;;;;;;;;-2.50;99.90;;;;;;5064323;28;19927;-72
2022/04/04 05:08:50;;;;;;;;;;;-2.40;99.90;;;;;;5054426;28;19921;-72
2022/04/04 05:11:16;;;;;;;;;;;-2.50;99.90;;;;;;5063777;28;19929;-71
2022/04/04 05:13:46;;;;;;;;;;;-2.50;99.90;;;;;;5048459;28;19975;-71
2022/04/04 05:16:14;;;;;;;;;;;-2.50;99.90;;;;;;5045360;28;19921;-72
2022/04/04 05:18:42;;;;;;;;;;;-2.50;99.90;;;;;;5046076;28;20000;-72
2022/04/04 05:21:11;;;;;;;;;;;-2.40;99.90;;;;;;5045971;28;19984;-72
2022/04/04 05:23:37;;;;;;;;;;;-2.50;99.90;;;;;;5039874;28;20148;-72
2022/04/04 05:26:04;;;;;;;;;;;-2.50;99.90;;;;;;5039025;28;19952;-72
2022/04/04 05:28:31;;;;;;;;;;;-2.40;99.90;;;;;;5045735;28;19928;-71
2022/04/04 05:30:58;;;;;;;;;;;-2.50;99.90;;;;;;5045604;28;19924;-71
2022/04/04 05:33:26;;;;;;;;;;;-2.50;99.90;;;;;;5045724;28;19967;-72
2022/04/04 05:35:53;;;;;;;;;;;-2.50;99.90;;;;;;5045032;28;20174;-71
2022/04/04 05:38:21;;;;;;;;;;;-2.50;99.90;;;;;;5045386;28;19964;-77
2022/04/04 05:40:54;;;;;;;;;;;-2.40;99.90;;;;;;5044552;28;19921;-71
2022/04/04 05:43:21;;;;;;;;;;;-2.30;99.90;;;;;;5045321;28;20213;-72
2022/04/04 05:45:49;;;;;;;;;;;-2.30;99.90;;;;;;5044503;28;20212;-72
2022/04/04 05:48:15;;;;;;;;;;;-2.30;99.90;;;;;;5042471;28;19928;-72
2022/04/04 05:50:42;;;;;;;;;;;-2.30;99.90;;;;;;5045234;28;19927;-72
2022/04/04 05:53:08;;;;;;;;;;;-2.20;99.90;;;;;;5045041;28;19921;-72
2022/04/04 05:55:36;;;;;;;;;;;-2.20;99.90;;;;;;5044387;28;19921;-72
2022/04/04 05:58:03;;;;;;;;;;;-2.10;99.90;;;;;;5044625;28;19924;-72
2022/04/04 06:00:30;;;;;;;;;;;-2.00;99.90;;;;;;5044676;28;19927;-72
2022/04/04 06:02:56;;;;;;;;;;;-2.00;99.90;;;;;;5045053;28;19927;-72
2022/04/04 06:05:23;;;;;;;;;;;-1.90;99.90;;;;;;5044181;28;19921;-72
2022/04/04 06:07:50;;;;;;;;;;;-1.80;99.90;;;;;;5044457;28;19921;-72
2022/04/04 06:10:17;;;;;;;;;;;-1.80;99.90;;;;;;5044143;28;20165;-72
2022/04/04 06:12:44;;;;;;;;;;;-1.70;99.90;;;;;;5044232;28;19975;-72
2022/04/04 06:15:11;;;;;;;;;;;-1.70;99.90;;;;;;5044019;28;19957;-72
2022/04/04 06:17:38;;;;;;;;;;;-1.70;99.90;;;;;;5043877;28;19920;-72
2022/04/04 06:20:06;;;;;;;;;;;-1.60;99.90;;;;;;5044182;28;20204;-72
2022/04/04 06:22:34;;;;;;;;;;;-1.60;99.90;;;;;;5043557;28;19921;-72
2022/04/04 06:25:01;;;;;;;;;;;-1.60;99.90;;;;;;5045500;28;19927;-72
2022/04/04 06:27:27;;;;;;;;;;;-1.50;99.90;;;;;;5043368;28;20209;-72
2022/04/04 06:29:55;;;;;;;;;;;-1.50;99.90;;;;;;5044352;28;19928;-72
2022/04/04 06:32:24;;;;;;;;;;;-1.40;99.90;;;;;;5044273;28;20144;-72
2022/04/04 06:34:50;;;;;;;;;;;-1.30;99.90;;;;;;5044226;28;19921;-72
2022/04/04 06:37:17;;;;;;;;;;;-1.30;99.90;;;;;;5044010;28;20265;-74
2022/04/04 06:39:43;;;;;;;;;;;-1.20;99.90;;;;;;5044581;28;19928;-71
2022/04/04 06:42:10;;;;;;;;;;;-1.20;99.90;;;;;;5044548;28;19927;-72
2022/04/04 06:44:37;;;;;;;;;;;-1.10;99.90;;;;;;5044381;28;19921;-72
2022/04/04 06:47:05;;;;;;;;;;;-1.00;99.90;;;;;;5041271;28;19928;-71
2022/04/04 06:49:32;;;;;;;;;;;-0.90;99.90;;;;;;5044221;28;19929;-71
2022/04/04 06:51:58;;;;;;;;;;;-0.80;99.90;;;;;;5044322;28;20007;-73
2022/04/04 06:54:25;;;;;;;;;;;-0.80;99.90;;;;;;5044219;28;19921;-71
2022/04/04 06:56:53;;;;;;;;;;;-0.70;99.90;;;;;;5043718;28;19928;-71
2022/04/04 06:59:20;;;;;;;;;;;-0.60;99.90;;;;;;5043860;28;19921;-70
2022/04/04 07:01:47;;;;;;;;;;;-0.50;99.90;;;;;;5044017;28;19924;-72
2022/04/04 07:04:15;;;;;;;;;;;-0.50;99.90;;;;;;5043591;28;20119;-70
2022/04/04 07:06:42;;;;;;;;;;;-0.40;99.90;;;;;;5042975;28;19921;-70
2022/04/04 07:09:09;;;;;;;;;;;-0.30;99.90;;;;;;5043680;28;19921;-70
2022/04/04 07:11:35;;;;;;;;;;;-0.30;99.90;;;;;;5043580;28;19921;-71
2022/04/04 07:14:06;;;;;;;;;;;-0.20;99.90;;;;;;5041692;28;20120;-70
2022/04/04 07:16:33;;;;;;;;;;;-0.10;99.90;;;;;;5043292;28;20204;-70
2022/04/04 07:18:59;;;;;;;;;;;-0.10;99.90;;;;;;5043331;28;19931;-70
2022/04/04 07:21:28;;;;;;;;;;;0.00;99.90;;;;;;5043462;28;19921;-70
2022/04/04 07:23:55;;;;;;;;;;;0.10;99.90;;;;;;5041326;28;19963;-70
2022/04/04 07:26:23;;;;;;;;;;;0.10;99.90;;;;;;5042999;28;19928;-70
2022/04/04 07:28:49;;;;;;;;;;;0.20;99.90;;;;;;5043595;28;19921;-70
2022/04/04 07:31:16;;;;;;;;;;;0.30;99.90;;;;;;5043602;28;19928;-70
2022/04/04 07:33:43;;;;;;;;;;;0.30;99.90;;;;;;5043611;28;19929;-70
2022/04/04 07:36:10;;;;;;;;;;;0.40;99.90;;;;;;5042762;28;19921;-70
2022/04/04 07:38:38;;;;;;;;;;;0.50;99.90;;;;;;5046867;28;19929;-70
2022/04/04 07:41:05;;;;;;;;;;;0.50;99.90;;;;;;5047766;28;19921;-70
2022/04/04 07:43:32;;;;;;;;;;;0.50;99.90;;;;;;5047872;28;19993;-70
2022/04/04 07:46:00;;;;;;;;;;;0.50;99.90;;;;;;5044706;28;19932;-70
2022/04/04 07:48:27;;;;;;;;;;;0.60;99.90;;;;;;5047274;28;19925;-70
2022/04/04 07:50:54;;;;;;;;;;;0.70;99.90;;;;;;5047265;28;20175;-70
2022/04/04 07:53:23;;;;;;;;;;;0.70;99.90;;;;;;5049034;28;20049;-70
2022/04/04 07:55:53;;;;;;;;;;;1.00;99.90;;;;;;5045563;28;19989;-70
2022/04/04 07:58:20;;;;;;;;;;;0.80;99.90;;;;;;5047769;28;20224;-70
2022/04/04 08:00:47;;;;;;;;;;;0.90;99.90;;;;;;5047374;28;19921;-70
2022/04/04 08:12:27;;;;;;;;;;;1.30;99.90;;;;;;5046958;28;19915;-69
2022/04/04 08:24:30;;;;;;;;;;;1.50;99.90;;;;;;5048839;28;19967;-69
2022/04/04 08:26:57;;;;;;;;;;;1.60;99.90;;;;;;5047995;28;19927;-70
2022/04/04 08:29:25;;;;;;;;;;;1.70;99.90;;;;;;5047592;28;20143;-69
2022/04/04 08:31:52;;;;;;;;;;;1.70;99.90;;;;;;5047480;28;20101;-70
2022/04/04 08:34:18;;;;;;;;;;;1.90;99.90;;;;;;5046670;28;19921;-69
2022/04/04 08:36:45;;;;;;;;;;;1.90;99.90;;;;;;5045611;28;20124;-69
2022/04/04 08:39:11;;;;;;;;;;;2.00;99.90;;;;;;5045979;28;19921;-69
2022/04/04 08:41:38;;;;;;;;;;;2.00;99.90;;;;;;5046078;28;20216;-69
2022/04/04 08:44:06;;;;;;;;;;;2.10;99.90;;;;;;5046160;28;19963;-69
2022/04/04 08:46:34;;;;;;;;;;;2.10;99.90;;;;;;5045687;28;19929;-69
2022/04/04 08:49:00;;;;;;;;;;;2.10;99.90;;;;;;5045544;28;20152;-71
2022/04/04 08:51:27;;;;;;;;;;;2.10;99.90;;;;;;5046009;28;19921;-69
2022/04/04 08:53:54;;;;;;;;;;;2.10;99.90;;;;;;5046036;28;20223;-69
2022/04/04 08:56:23;;;;;;;;;;;2.10;99.90;;;;;;5043459;28;19929;-69
2022/04/04 08:58:50;;;;;;;;;;;2.10;99.90;;;;;;5045683;28;20119;-69
2022/04/04 09:01:17;;;;;;;;;;;2.20;99.90;;;;;;5045877;28;19944;-69
2022/04/04 09:03:45;;;;;;;;;;;2.20;99.90;;;;;;5045736;28;19959;-69
2022/04/04 09:06:11;;;;;;;;;;;2.20;99.90;;;;;;5045343;28;20108;-69
2022/04/04 09:08:45;;;;;;;;;;;2.30;99.90;;;;;;5045531;28;19928;-69
2022/04/04 09:11:12;;;;;;;;;;;2.30;99.90;;;;;;5045955;28;19928;-69
2022/04/04 09:13:39;;;;;;;;;;;2.40;99.90;;;;;;5045745;28;19921;-70
2022/04/04 09:16:06;;;;;;;;;;;2.40;99.90;;;;;;5039944;28;19944;-69
2022/04/04 09:18:57;;;;;;;;;;;2.50;99.90;;;;;;5040417;28;20297;-69
2022/04/04 09:21:38;;;;;;;;;;;2.50;99.90;;;;;;5044892;28;19921;-70
2022/04/04 09:24:10;;;;;;;;;;;2.60;99.90;;;;;;5044519;28;19921;-70
2022/04/04 09:26:38;;;;;;;;;;;2.70;99.90;;;;;;5043897;28;19921;-69
2022/04/04 09:29:07;;;;;;;;;;;2.80;99.90;;;;;;5035090;28;19922;-69
2022/04/04 09:31:33;;;;;;;;;;;2.90;99.90;;;;;;5033426;28;19922;-69
2022/04/04 09:34:01;;;;;;;;;;;2.90;99.90;;;;;;5039251;28;19928;-69
2022/04/04 09:36:28;;;;;;;;;;;3.00;99.90;;;;;;5044068;28;19921;-69
2022/04/04 09:39:00;;;;;;;;;;;2.90;99.90;;;;;;5044893;28;20117;-69
2022/04/04 09:41:28;;;;;;;;;;;3.00;99.90;;;;;;5033902;28;19943;-69
2022/04/04 09:43:55;;;;;;;;;;;3.00;99.90;;;;;;5044654;28;19983;-69
2022/04/04 09:46:22;;;;;;;;;;;3.00;99.90;;;;;;5043615;28;19921;-73
2022/04/04 09:49:01;;;;;;;;;;;3.10;99.90;;;;;;5043377;28;19921;-69
2022/04/04 09:51:37;;;;;;;;;;;3.20;99.90;;;;;;5042008;28;19925;-70
2022/04/04 09:54:06;;;;;;;;;;;3.20;99.90;;;;;;5025234;28;19929;-71
2022/04/04 09:56:33;;;;;;;;;;;3.20;99.90;;;;;;5024039;28;19956;-68
2022/04/04 09:59:00;;;;;;;;;;;3.30;99.90;;;;;;5024701;28;20120;-68
2022/04/04 10:01:27;;;;;;;;;;;3.30;99.90;;;;;;5023655;28;20157;-68
2022/04/04 10:03:54;;;;;;;;;;;3.40;99.90;;;;;;5033541;28;19960;-69
2022/04/04 10:06:21;;;;;;;;;;;3.60;99.90;;;;;;5041245;28;19933;-69
2022/04/04 10:08:51;;;;;;;;;;;3.70;99.90;;;;;;5032682;28;19929;-69
2022/04/04 10:11:19;;;;;;;;;;;3.70;99.90;;;;;;5024474;28;19922;-69
2022/04/04 10:13:47;;;;;;;;;;;3.80;99.90;;;;;;5024780;28;19984;-69
2022/04/04 10:16:14;;;;;;;;;;;3.80;99.90;;;;;;5021927;28;19992;-69
2022/04/04 10:18:43;;;;;;;;;;;3.90;99.90;;;;;;5029182;28;19921;-69
2022/04/04 10:21:10;;;;;;;;;;;3.90;99.90;;;;;;5044529;28;19921;-69
2022/04/04 10:23:37;;;;;;;;;;;3.90;99.90;;;;;;5043264;28;19921;-69
2022/04/04 10:26:03;;;;;;;;;;;3.90;99.90;;;;;;5042904;28;19921;-70
2022/04/04 10:28:32;;;;;;;;;;;4.10;99.90;;;;;;5042800;28;20238;-69
2022/04/04 10:30:59;;;;;;;;;;;4.10;99.90;;;;;;5025401;28;19925;-69
2022/04/04 10:33:27;;;;;;;;;;;4.10;99.90;;;;;;5024409;28;19922;-69
2022/04/04 10:36:01;;;;;;;;;;;4.00;99.90;;;;;;5023330;28;19968;-69
2022/04/04 10:38:31;;;;;;;;;;;4.10;99.90;;;;;;5024263;28;19975;-69
2022/04/04 10:40:58;;;;;;;;;;;4.30;99.90;;;;;;5042951;28;19921;-69
2022/04/04 10:43:25;;;;;;;;;;;4.50;99.90;;;;;;5043736;28;19928;-69
2022/04/04 10:45:54;;;;;;;;;;;4.60;99.90;;;;;;5033371;28;19956;-69
2022/04/04 10:48:21;;;;;;;;;;;4.60;99.90;;;;;;5023584;28;19925;-69
2022/04/04 10:50:51;;;;;;;;;;;4.60;99.90;;;;;;5030583;28;19925;-69
2022/04/04 10:53:35;;;;;;;;;;;4.40;99.90;;;;;;5043662;28;20231;-71
2022/04/04 10:56:01;;;;;;;;;;;4.40;99.90;;;;;;5042205;28;20116;-71
2022/04/04 10:58:28;;;;;;;;;;;4.50;99.90;;;;;;5042141;28;19921;-71
2022/04/04 11:01:09;;;;;;;;;;;4.60;99.90;;;;;;5041500;28;19927;-72
2022/04/04 11:03:37;;;;;;;;;;;4.60;99.90;;;;;;5031013;28;19984;-71
2022/04/04 11:09:04;;;;;;;;;;;5.10;99.90;;;;;;5040279;28;19968;-72
2022/04/04 11:11:44;;;;;;;;;;;5.30;99.90;;;;;;5032496;28;19929;-72
2022/04/04 11:14:11;;;;;;;;;;;5.30;99.90;;;;;;5029007;28;19959;-69
2022/04/04 11:16:56;;;;;;;;;;;5.30;99.90;;;;;;5042586;28;19921;-72
2022/04/04 11:19:28;;;;;;;;;;;5.40;99.90;;;;;;5030002;28;19922;-69
2022/04/04 11:21:55;;;;;;;;;;;5.70;99.90;;;;;;5043155;28;20132;-70
2022/04/04 11:24:31;;;;;;;;;;;5.70;99.90;;;;;;5039803;28;20274;-70
2022/04/04 11:26:58;;;;;;;;;;;5.80;99.90;;;;;;5039896;28;20239;-72
2022/04/04 11:29:25;;;;;;;;;;;5.90;99.90;;;;;;5042543;28;19927;-72
2022/04/04 11:31:51;;;;;;;;;;;5.90;99.90;;;;;;5042473;28;19992;-72
2022/04/04 11:34:21;;;;;;;;;;;5.80;99.90;;;;;;5042856;28;19959;-72
2022/04/04 11:36:49;;;;;;;;;;;5.70;99.90;;;;;;5042815;28;19925;-73
2022/04/04 11:39:16;;;;;;;;;;;5.70;99.90;;;;;;5042859;28;19921;-72
2022/04/04 11:41:50;;;;;;;;;;;5.80;99.90;;;;;;5042603;28;19925;-72
2022/04/04 11:44:23;;;;;;;;;;;5.80;99.90;;;;;;5037744;28;19928;-72
2022/04/04 11:47:01;;;;;;;;;;;5.90;99.90;;;;;;5029299;28;19928;-72
2022/04/04 11:49:32;;;;;;;;;;;6.00;99.90;;;;;;5041218;28;19992;-72
2022/04/04 11:52:04;;;;;;;;;;;6.10;99.90;;;;;;5029880;28;19927;-72
2022/04/04 11:54:39;;;;;;;;;;;6.20;99.90;;;;;;5043004;28;19921;-72
2022/04/04 11:57:06;;;;;;;;;;;6.10;99.90;;;;;;5026431;28;19925;-72
2022/04/04 11:59:34;;;;;;;;;;;6.20;99.90;;;;;;5023548;28;20195;-72
2022/04/04 12:02:03;;;;;;;;;;;6.20;99.90;;;;;;5032381;28;19953;-72
2022/04/04 12:04:30;;;;;;;;;;;6.20;99.90;;;;;;5022709;28;19922;-72
2022/04/04 12:06:56;;;;;;;;;;;6.50;99.90;;;;;;5022458;28;19921;-72
2022/04/04 12:09:31;;;;;;;;;;;6.60;99.90;;;;;;5022599;28;19921;-72
2022/04/04 12:12:01;;;;;;;;;;;6.60;99.90;;;;;;5022509;28;19929;-72
2022/04/04 12:14:31;;;;;;;;;;;6.60;99.90;;;;;;5023048;28;19921;-71
2022/04/04 12:16:57;;;;;;;;;;;6.40;99.90;;;;;;5031258;28;20216;-71
2022/04/04 12:19:25;;;;;;;;;;;6.50;99.90;;;;;;5031267;28;19921;-72
2022/04/04 12:21:52;;;;;;;;;;;6.70;99.90;;;;;;5042210;28;19921;-69
2022/04/04 12:27:12;;;;;;;;;;;6.80;99.90;;;;;;5025595;28;19925;-70
2022/04/04 12:29:45;;;;;;;;;;;7.10;99.90;;;;;;5026009;28;19922;-71
2022/04/04 12:32:16;;;;;;;;;;;7.10;99.90;;;;;;5039794;28;20116;-72
2022/04/04 12:34:54;;;;;;;;;;;6.90;99.90;;;;;;5045891;28;19921;-73
2022/04/04 12:37:31;;;;;;;;;;;7.10;99.90;;;;;;5040884;28;19972;-72
2022/04/04 12:40:11;;;;;;;;;;;7.30;99.90;;;;;;5035354;28;19922;-72
2022/04/04 12:42:39;;;;;;;;;;;7.50;99.90;;;;;;5029450;28;19957;-72
2022/04/04 12:45:07;;;;;;;;;;;7.50;99.90;;;;;;5023582;28;20118;-72
2022/04/04 12:47:33;;;;;;;;;;;7.50;99.90;;;;;;5040531;28;19921;-71
2022/04/04 12:50:12;;;;;;;;;;;7.50;99.90;;;;;;5045567;28;19925;-71
2022/04/04 12:52:53;;;;;;;;;;;7.20;99.90;;;;;;5029631;28;20205;-71
2022/04/04 12:55:20;;;;;;;;;;;7.20;99.90;;;;;;5024812;28;19922;-71
2022/04/04 12:57:48;;;;;;;;;;;7.20;99.90;;;;;;5025740;28;19921;-71
2022/04/04 13:00:25;;;;;;;;;;;7.20;99.90;;;;;;5026050;28;19945;-71
2022/04/04 13:02:51;;;;;;;;;;;7.20;99.90;;;;;;5026002;28;19960;-71
2022/04/04 13:05:19;;;;;;;;;;;7.20;99.90;;;;;;5025163;28;19922;-71
2022/04/04 13:07:49;;;;;;;;;;;7.10;99.90;;;;;;5023215;28;20163;-72
2022/04/04 13:10:16;;;;;;;;;;;7.10;99.90;;;;;;5026024;28;19928;-71
2022/04/04 13:12:43;;;;;;;;;;;7.30;99.90;;;;;;5025916;28;20216;-72
2022/04/04 13:15:11;;;;;;;;;;;7.40;99.90;;;;;;5025919;28;19953;-71
2022/04/04 13:17:38;;;;;;;;;;;7.70;99.90;;;;;;5029183;28;20223;-74
2022/04/04 13:20:06;;;;;;;;;;;7.60;99.90;;;;;;5032667;28;19928;-71
2022/04/04 13:28:39;;;;;;;;;;;8.00;99.90;;;;;;5026713;28;19956;-72
2022/04/04 13:31:07;;;;;;;;;;;8.20;99.90;;;;;;5037578;28;19929;-71
2022/04/04 13:33:33;;;;;;;;;;;8.30;99.90;;;;;;5044874;28;19921;-72
2022/04/04 13:36:03;;;;;;;;;;;8.00;99.60;;;;;;5036667;28;19921;-72
2022/04/04 13:38:29;;;;;;;;;;;7.90;99.90;;;;;;5043864;28;19922;-72
2022/04/04 13:40:56;;;;;;;;;;;7.70;99.50;;;;;;5039897;28;19928;-71
2022/04/04 13:43:31;;;;;;;;;;;7.60;99.90;;;;;;5032161;28;19943;-71
2022/04/04 13:45:58;;;;;;;;;;;7.40;99.90;;;;;;5040138;28;19928;-72
2022/04/04 13:48:26;;;;;;;;;;;7.60;99.90;;;;;;5043794;28;20215;-72
2022/04/04 13:50:54;;;;;;;;;;;7.80;99.90;;;;;;5044920;28;19921;-72
2022/04/04 13:53:20;;;;;;;;;;;7.70;99.50;;;;;;5045509;28;19929;-72
2022/04/04 13:55:47;;;;;;;;;;;9.10;99.90;;;;;;5032746;28;20116;-72
2022/04/04 13:58:14;;;;;;;;;;;7.50;99.70;;;;;;5024523;28;20174;-72
2022/04/04 14:00:41;;;;;;;;;;;7.40;99.90;;;;;;5031171;28;19959;-72
2022/04/04 14:03:10;;;;;;;;;;;7.20;99.80;;;;;;5044706;28;20155;-72
2022/04/04 14:05:38;;;;;;;;;;;7.20;99.90;;;;;;5030676;28;19922;-72
2022/04/04 14:08:05;;;;;;;;;;;7.40;99.90;;;;;;5045571;28;19928;-73
2022/04/04 14:10:31;;;;;;;;;;;7.50;99.90;;;;;;5044572;28;19928;-72
2022/04/04 14:12:58;;;;;;;;;;;7.60;99.90;;;;;;5044038;28;20209;-72
2022/04/04 14:15:25;;;;;;;;;;;7.80;99.90;;;;;;5043667;28;19928;-72
2022/04/04 14:17:51;;;;;;;;;;;7.90;99.90;;;;;;5037133;28;19920;-71
2022/04/04 14:20:18;;;;;;;;;;;7.90;99.90;;;;;;5041410;28;19925;-73
2022/04/04 14:22:46;;;;;;;;;;;7.90;99.90;;;;;;5043167;28;19927;-72
2022/04/04 14:25:13;;;;;;;;;;;7.90;99.90;;;;;;5043825;28;19921;-72
2022/04/04 14:27:39;;;;;;;;;;;7.60;99.90;;;;;;5033791;28;19928;-72
2022/04/04 14:30:07;;;;;;;;;;;7.70;99.90;;;;;;5027072;28;19922;-72
2022/04/04 14:32:34;;;;;;;;;;;7.90;99.90;;;;;;5024304;28;19922;-72
2022/04/04 14:35:00;;;;;;;;;;;8.00;99.90;;;;;;5028732;28;19925;-72
2022/04/04 14:37:27;;;;;;;;;;;8.30;99.90;;;;;;5023925;28;19929;-72
2022/04/04 14:39:55;;;;;;;;;;;8.20;99.90;;;;;;5024264;28;20229;-72
2022/04/04 14:42:21;;;;;;;;;;;8.20;99.90;;;;;;5021317;28;19944;-72
2022/04/04 14:44:51;;;;;;;;;;;7.90;99.90;;;;;;5039885;28;19987;-72
2022/04/04 14:47:18;;;;;;;;;;;7.80;99.90;;;;;;5027702;28;19981;-72
2022/04/04 14:49:45;;;;;;;;;;;7.60;99.90;;;;;;5023774;28;19928;-72
2022/04/04 14:52:11;;;;;;;;;;;7.40;99.90;;;;;;5023547;28;19984;-72
2022/04/04 14:54:38;;;;;;;;;;;7.40;99.90;;;;;;5033139;28;19980;-72
2022/04/04 14:57:06;;;;;;;;;;;7.30;99.90;;;;;;5042915;28;19927;-71
2022/04/04 14:59:33;;;;;;;;;;;7.00;99.90;;;;;;5042448;28;19928;-72
2022/04/04 15:02:00;;;;;;;;;;;7.00;99.90;;;;;;5042655;28;19921;-72
2022/04/04 15:04:26;;;;;;;;;;;6.90;99.90;;;;;;5042959;28;19976;-72